sensor_id;sensor_type;location;lat;lon;timestamp;temperature;humidity
10644;DHT22;5370;50.132;8.626;2023-04-24T00:01:27;12.70;90.10
10644;DHT22;5370;50.132;8.626;2023-04-24T00:03:55;12.80;90.10
10644;DHT22;5370;50.132;8.626;2023-04-24T00:06:21;12.80;90.10
10644;DHT22;5370;50.132;8.626;2023-04-24T00:08:48;12.90;90.10
10644;DHT22;5370;50.132;8.626;2023-04-24T00:11:14;12.90;90.00
10644;DHT22;5370;50.132;8.626;2023-04-24T00:13:40;12.90;89.90
10644;DHT22;5370;50.132;8.626;2023-04-24T00:16:05;13.00;89.80
10644;DHT22;5370;50.132;8.626;2023-04-24T00:18:31;13.00;89.50
10644;DHT22;5370;50.132;8.626;2023-04-24T00:20:56;13.10;89.50
10644;DHT22;5370;50.132;8.626;2023-04-24T00:23:22;13.10;89.20
10644;DHT22;5370;50.132;8.626;2023-04-24T00:25:47;13.20;89.10
10644;DHT22;5370;50.132;8.626;2023-04-24T00:28:13;13.20;88.70
10644;DHT22;5370;50.132;8.626;2023-04-24T00:30:39;13.20;88.50
10644;DHT22;5370;50.132;8.626;2023-04-24T00:33:05;13.20;88.40
10644;DHT22;5370;50.132;8.626;2023-04-24T00:35:30;13.20;88.50
10644;DHT22;5370;50.132;8.626;2023-04-24T00:37:56;13.20;88.50
10644;DHT22;5370;50.132;8.626;2023-04-24T00:40:22;13.20;88.50
10644;DHT22;5370;50.132;8.626;2023-04-24T00:42:47;13.20;88.50
10644;DHT22;5370;50.132;8.626;2023-04-24T00:45:13;13.20;88.60
10644;DHT22;5370;50.132;8.626;2023-04-24T00:47:41;13.20;88.70
10644;DHT22;5370;50.132;8.626;2023-04-24T00:50:07;13.20;88.80
10644;DHT22;5370;50.132;8.626;2023-04-24T00:52:33;13.20;89.00
10644;DHT22;5370;50.132;8.626;2023-04-24T00:54:59;13.20;89.10
10644;DHT22;5370;50.132;8.626;2023-04-24T00:57:24;13.20;89.20
10644;DHT22;5370;50.132;8.626;2023-04-24T00:59:51;13.20;89.20
10644;DHT22;5370;50.132;8.626;2023-04-24T01:02:17;13.20;89.30
10644;DHT22;5370;50.132;8.626;2023-04-24T01:04:43;13.20;89.30
10644;DHT22;5370;50.132;8.626;2023-04-24T01:07:08;13.20;89.20
10644;DHT22;5370;50.132;8.626;2023-04-24T01:09:38;13.20;89.20
10644;DHT22;5370;50.132;8.626;2023-04-24T01:12:05;13.10;89.10
10644;DHT22;5370;50.132;8.626;2023-04-24T01:14:31;13.10;89.00
10644;DHT22;5370;50.132;8.626;2023-04-24T01:16:56;13.10;89.00
10644;DHT22;5370;50.132;8.626;2023-04-24T01:19:22;13.10;89.10
10644;DHT22;5370;50.132;8.626;2023-04-24T01:21:50;13.10;89.00
10644;DHT22;5370;50.132;8.626;2023-04-24T01:24:16;13.00;88.80
10644;DHT22;5370;50.132;8.626;2023-04-24T01:26:44;13.00;88.90
10644;DHT22;5370;50.132;8.626;2023-04-24T01:29:09;13.00;88.90
10644;DHT22;5370;50.132;8.626;2023-04-24T01:31:35;12.90;88.80
10644;DHT22;5370;50.132;8.626;2023-04-24T01:34:02;12.90;89.40
10644;DHT22;5370;50.132;8.626;2023-04-24T01:36:28;12.90;89.10
10644;DHT22;5370;50.132;8.626;2023-04-24T01:38:56;12.90;89.10
10644;DHT22;5370;50.132;8.626;2023-04-24T01:41:22;12.80;88.90
10644;DHT22;5370;50.132;8.626;2023-04-24T01:43:49;12.70;88.90
10644;DHT22;5370;50.132;8.626;2023-04-24T01:46:15;12.70;88.90
10644;DHT22;5370;50.132;8.626;2023-04-24T01:48:41;12.70;89.20
10644;DHT22;5370;50.132;8.626;2023-04-24T01:51:07;12.60;89.30
10644;DHT22;5370;50.132;8.626;2023-04-24T01:53:32;12.60;89.60
10644;DHT22;5370;50.132;8.626;2023-04-24T01:55:58;12.60;89.80
10644;DHT22;5370;50.132;8.626;2023-04-24T01:58:23;12.60;89.90
10644;DHT22;5370;50.132;8.626;2023-04-24T02:00:49;12.70;90.00
10644;DHT22;5370;50.132;8.626;2023-04-24T02:03:15;12.70;90.00
10644;DHT22;5370;50.132;8.626;2023-04-24T02:05:43;12.70;90.00
10644;DHT22;5370;50.132;8.626;2023-04-24T02:08:08;12.70;90.00
10644;DHT22;5370;50.132;8.626;2023-04-24T02:10:34;12.70;90.00
10644;DHT22;5370;50.132;8.626;2023-04-24T02:12:59;12.80;90.00
10644;DHT22;5370;50.132;8.626;2023-04-24T02:15:25;12.80;90.00
10644;DHT22;5370;50.132;8.626;2023-04-24T02:17:51;12.80;90.00
10644;DHT22;5370;50.132;8.626;2023-04-24T02:20:16;12.80;89.90
10644;DHT22;5370;50.132;8.626;2023-04-24T02:22:42;12.80;89.90
10644;DHT22;5370;50.132;8.626;2023-04-24T02:25:08;12.80;89.90
10644;DHT22;5370;50.132;8.626;2023-04-24T02:27:34;12.80;89.90
10644;DHT22;5370;50.132;8.626;2023-04-24T02:29:59;12.80;89.80
10644;DHT22;5370;50.132;8.626;2023-04-24T02:32:25;12.80;89.80
10644;DHT22;5370;50.132;8.626;2023-04-24T02:34:51;12.80;89.70
10644;DHT22;5370;50.132;8.626;2023-04-24T02:37:16;12.80;89.70
10644;DHT22;5370;50.132;8.626;2023-04-24T02:39:42;12.80;89.50
10644;DHT22;5370;50.132;8.626;2023-04-24T02:42:08;12.80;89.40
10644;DHT22;5370;50.132;8.626;2023-04-24T02:44:33;12.80;89.30
10644;DHT22;5370;50.132;8.626;2023-04-24T02:46:59;12.80;89.20
10644;DHT22;5370;50.132;8.626;2023-04-24T02:49:24;12.70;89.00
10644;DHT22;5370;50.132;8.626;2023-04-24T02:51:51;12.70;88.90
10644;DHT22;5370;50.132;8.626;2023-04-24T02:54:16;12.70;89.10
10644;DHT22;5370;50.132;8.626;2023-04-24T02:56:42;12.70;89.20
10644;DHT22;5370;50.132;8.626;2023-04-24T02:59:08;12.70;89.20
10644;DHT22;5370;50.132;8.626;2023-04-24T03:01:34;12.60;89.20
10644;DHT22;5370;50.132;8.626;2023-04-24T03:03:59;12.60;89.30
10644;DHT22;5370;50.132;8.626;2023-04-24T03:06:25;12.60;89.40
10644;DHT22;5370;50.132;8.626;2023-04-24T03:08:52;12.60;89.50
10644;DHT22;5370;50.132;8.626;2023-04-24T03:11:18;12.60;89.60
10644;DHT22;5370;50.132;8.626;2023-04-24T03:13:43;12.60;89.70
10644;DHT22;5370;50.132;8.626;2023-04-24T03:16:09;12.60;89.80
10644;DHT22;5370;50.132;8.626;2023-04-24T03:18:34;12.60;89.80
10644;DHT22;5370;50.132;8.626;2023-04-24T03:21:00;12.70;89.90
10644;DHT22;5370;50.132;8.626;2023-04-24T03:23:26;12.60;89.80
10644;DHT22;5370;50.132;8.626;2023-04-24T03:25:51;12.60;89.90
10644;DHT22;5370;50.132;8.626;2023-04-24T03:28:17;12.60;89.90
10644;DHT22;5370;50.132;8.626;2023-04-24T03:30:42;12.60;89.90
10644;DHT22;5370;50.132;8.626;2023-04-24T03:33:08;12.60;90.00
10644;DHT22;5370;50.132;8.626;2023-04-24T03:35:35;12.60;90.00
10644;DHT22;5370;50.132;8.626;2023-04-24T03:38:01;12.60;90.00
10644;DHT22;5370;50.132;8.626;2023-04-24T03:40:27;12.60;90.00
10644;DHT22;5370;50.132;8.626;2023-04-24T03:42:54;12.60;90.00
10644;DHT22;5370;50.132;8.626;2023-04-24T03:45:20;12.60;90.00
10644;DHT22;5370;50.132;8.626;2023-04-24T03:47:45;12.60;90.00
10644;DHT22;5370;50.132;8.626;2023-04-24T03:50:11;12.50;90.00
10644;DHT22;5370;50.132;8.626;2023-04-24T03:52:36;12.50;90.00
10644;DHT22;5370;50.132;8.626;2023-04-24T03:55:02;12.50;90.00
10644;DHT22;5370;50.132;8.626;2023-04-24T03:57:28;12.50;89.90
10644;DHT22;5370;50.132;8.626;2023-04-24T03:59:53;12.50;90.00
10644;DHT22;5370;50.132;8.626;2023-04-24T04:02:19;12.50;90.00
10644;DHT22;5370;50.132;8.626;2023-04-24T04:04:44;12.50;90.00
10644;DHT22;5370;50.132;8.626;2023-04-24T04:07:10;12.40;90.00
10644;DHT22;5370;50.132;8.626;2023-04-24T04:09:36;12.50;90.00
10644;DHT22;5370;50.132;8.626;2023-04-24T04:12:02;12.40;90.00
10644;DHT22;5370;50.132;8.626;2023-04-24T04:14:28;12.40;90.00
10644;DHT22;5370;50.132;8.626;2023-04-24T04:16:53;12.40;90.00
10644;DHT22;5370;50.132;8.626;2023-04-24T04:19:19;12.40;90.00
10644;DHT22;5370;50.132;8.626;2023-04-24T04:21:45;12.40;90.00
10644;DHT22;5370;50.132;8.626;2023-04-24T04:24:11;12.40;89.90
10644;DHT22;5370;50.132;8.626;2023-04-24T04:26:37;12.40;89.30
10644;DHT22;5370;50.132;8.626;2023-04-24T04:29:03;12.40;88.40
10644;DHT22;5370;50.132;8.626;2023-04-24T04:31:29;12.30;86.40
10644;DHT22;5370;50.132;8.626;2023-04-24T04:33:55;12.20;84.70
10644;DHT22;5370;50.132;8.626;2023-04-24T04:36:21;12.10;82.50
10644;DHT22;5370;50.132;8.626;2023-04-24T04:38:46;12.00;81.40
10644;DHT22;5370;50.132;8.626;2023-04-24T04:41:12;11.90;80.60
10644;DHT22;5370;50.132;8.626;2023-04-24T04:43:37;11.80;79.70
10644;DHT22;5370;50.132;8.626;2023-04-24T04:46:05;11.80;79.20
10644;DHT22;5370;50.132;8.626;2023-04-24T04:48:30;11.70;78.70
10644;DHT22;5370;50.132;8.626;2023-04-24T04:50:57;11.60;78.10
10644;DHT22;5370;50.132;8.626;2023-04-24T04:53:23;11.60;77.60
10644;DHT22;5370;50.132;8.626;2023-04-24T04:55:48;11.50;77.40
10644;DHT22;5370;50.132;8.626;2023-04-24T04:58:14;11.50;77.20
10644;DHT22;5370;50.132;8.626;2023-04-24T05:00:39;11.50;77.10
10644;DHT22;5370;50.132;8.626;2023-04-24T05:03:05;11.40;76.90
10644;DHT22;5370;50.132;8.626;2023-04-24T05:05:31;11.40;77.10
10644;DHT22;5370;50.132;8.626;2023-04-24T05:07:56;11.40;77.00
10644;DHT22;5370;50.132;8.626;2023-04-24T05:10:22;11.50;77.10
10644;DHT22;5370;50.132;8.626;2023-04-24T05:12:48;11.40;76.80
10644;DHT22;5370;50.132;8.626;2023-04-24T05:15:14;11.50;76.90
10644;DHT22;5370;50.132;8.626;2023-04-24T05:17:40;11.50;76.90
10644;DHT22;5370;50.132;8.626;2023-04-24T05:20:06;11.50;76.80
10644;DHT22;5370;50.132;8.626;2023-04-24T05:22:32;11.60;76.60
10644;DHT22;5370;50.132;8.626;2023-04-24T05:24:57;11.70;76.60
10644;DHT22;5370;50.132;8.626;2023-04-24T05:27:24;11.80;76.60
10644;DHT22;5370;50.132;8.626;2023-04-24T05:29:49;12.10;76.80
10644;DHT22;5370;50.132;8.626;2023-04-24T05:32:15;12.40;76.80
10644;DHT22;5370;50.132;8.626;2023-04-24T05:34:40;12.90;75.90
10644;DHT22;5370;50.132;8.626;2023-04-24T05:37:06;13.30;75.10
10644;DHT22;5370;50.132;8.626;2023-04-24T05:39:34;13.60;73.60
10644;DHT22;5370;50.132;8.626;2023-04-24T05:42:00;14.10;72.20
10644;DHT22;5370;50.132;8.626;2023-04-24T05:44:26;14.40;70.00
10644;DHT22;5370;50.132;8.626;2023-04-24T05:46:52;14.90;68.50
10644;DHT22;5370;50.132;8.626;2023-04-24T05:49:17;15.30;65.80
10644;DHT22;5370;50.132;8.626;2023-04-24T05:51:43;15.70;62.90
10644;DHT22;5370;50.132;8.626;2023-04-24T05:54:08;16.10;59.90
10644;DHT22;5370;50.132;8.626;2023-04-24T05:56:35;16.50;58.50
10644;DHT22;5370;50.132;8.626;2023-04-24T05:59:01;16.90;54.90
10644;DHT22;5370;50.132;8.626;2023-04-24T06:01:27;17.20;54.40
10644;DHT22;5370;50.132;8.626;2023-04-24T06:03:52;17.30;53.50
10644;DHT22;5370;50.132;8.626;2023-04-24T06:06:18;17.20;53.30
10644;DHT22;5370;50.132;8.626;2023-04-24T06:08:44;17.30;52.70
10644;DHT22;5370;50.132;8.626;2023-04-24T06:11:10;17.20;51.90
10644;DHT22;5370;50.132;8.626;2023-04-24T06:13:36;16.90;51.60
10644;DHT22;5370;50.132;8.626;2023-04-24T06:16:01;16.70;52.10
10644;DHT22;5370;50.132;8.626;2023-04-24T06:18:27;16.50;52.50
10644;DHT22;5370;50.132;8.626;2023-04-24T06:20:52;16.40;53.00
10644;DHT22;5370;50.132;8.626;2023-04-24T06:23:18;16.40;52.80
10644;DHT22;5370;50.132;8.626;2023-04-24T06:25:44;16.40;52.60
10644;DHT22;5370;50.132;8.626;2023-04-24T06:28:09;16.50;52.80
10644;DHT22;5370;50.132;8.626;2023-04-24T06:30:35;16.70;52.70
10644;DHT22;5370;50.132;8.626;2023-04-24T06:33:00;16.90;52.20
10644;DHT22;5370;50.132;8.626;2023-04-24T06:35:26;16.90;51.90
10644;DHT22;5370;50.132;8.626;2023-04-24T06:37:51;16.90;51.70
10644;DHT22;5370;50.132;8.626;2023-04-24T06:40:17;16.70;51.50
10644;DHT22;5370;50.132;8.626;2023-04-24T06:42:44;16.30;51.00
10644;DHT22;5370;50.132;8.626;2023-04-24T06:45:09;15.90;51.40
10644;DHT22;5370;50.132;8.626;2023-04-24T06:47:35;15.60;52.10
10644;DHT22;5370;50.132;8.626;2023-04-24T06:50:01;15.40;52.40
10644;DHT22;5370;50.132;8.626;2023-04-24T06:52:26;15.20;52.80
10644;DHT22;5370;50.132;8.626;2023-04-24T06:54:52;15.50;54.00
10644;DHT22;5370;50.132;8.626;2023-04-24T06:57:18;16.30;54.20
10644;DHT22;5370;50.132;8.626;2023-04-24T06:59:43;17.60;53.20
10644;DHT22;5370;50.132;8.626;2023-04-24T07:02:09;19.20;51.70
10644;DHT22;5370;50.132;8.626;2023-04-24T07:04:34;20.90;49.60
10644;DHT22;5370;50.132;8.626;2023-04-24T07:07:00;22.50;46.30
10644;DHT22;5370;50.132;8.626;2023-04-24T07:09:26;23.90;43.70
10644;DHT22;5370;50.132;8.626;2023-04-24T07:11:52;25.20;41.20
10644;DHT22;5370;50.132;8.626;2023-04-24T07:14:19;26.20;39.00
10644;DHT22;5370;50.132;8.626;2023-04-24T07:16:44;27.10;36.40
10644;DHT22;5370;50.132;8.626;2023-04-24T07:19:11;27.80;35.10
10644;DHT22;5370;50.132;8.626;2023-04-24T07:21:36;28.50;34.10
10644;DHT22;5370;50.132;8.626;2023-04-24T07:24:02;29.40;33.20
10644;DHT22;5370;50.132;8.626;2023-04-24T07:26:29;30.30;32.10
10644;DHT22;5370;50.132;8.626;2023-04-24T07:28:55;31.00;30.20
10644;DHT22;5370;50.132;8.626;2023-04-24T07:31:20;31.50;29.00
10644;DHT22;5370;50.132;8.626;2023-04-24T07:33:47;31.50;28.50
10644;DHT22;5370;50.132;8.626;2023-04-24T07:36:12;31.40;28.00
10644;DHT22;5370;50.132;8.626;2023-04-24T07:38:47;31.30;28.10
10644;DHT22;5370;50.132;8.626;2023-04-24T07:41:13;31.40;28.00
10644;DHT22;5370;50.132;8.626;2023-04-24T07:43:40;31.40;27.80
10644;DHT22;5370;50.132;8.626;2023-04-24T07:46:06;31.60;27.40
10644;DHT22;5370;50.132;8.626;2023-04-24T07:48:32;31.90;27.10
10644;DHT22;5370;50.132;8.626;2023-04-24T07:50:57;32.20;26.60
10644;DHT22;5370;50.132;8.626;2023-04-24T07:53:23;32.40;25.90
10644;DHT22;5370;50.132;8.626;2023-04-24T07:55:48;32.20;25.80
10644;DHT22;5370;50.132;8.626;2023-04-24T07:58:14;32.10;25.70
10644;DHT22;5370;50.132;8.626;2023-04-24T08:00:40;31.30;25.70
10644;DHT22;5370;50.132;8.626;2023-04-24T08:03:06;30.40;26.20
10644;DHT22;5370;50.132;8.626;2023-04-24T08:05:31;29.20;26.80
10644;DHT22;5370;50.132;8.626;2023-04-24T08:07:57;27.80;28.00
10644;DHT22;5370;50.132;8.626;2023-04-24T08:10:23;26.70;29.20
10644;DHT22;5370;50.132;8.626;2023-04-24T08:12:48;26.60;29.70
10644;DHT22;5370;50.132;8.626;2023-04-24T08:15:14;26.90;30.10
10644;DHT22;5370;50.132;8.626;2023-04-24T08:17:40;27.50;29.20
10644;DHT22;5370;50.132;8.626;2023-04-24T08:20:06;28.60;28.40
10644;DHT22;5370;50.132;8.626;2023-04-24T08:22:35;29.70;27.40
10644;DHT22;5370;50.132;8.626;2023-04-24T08:25:01;30.50;26.80
10644;DHT22;5370;50.132;8.626;2023-04-24T08:27:27;31.20;26.00
10644;DHT22;5370;50.132;8.626;2023-04-24T08:29:56;31.40;25.50
10644;DHT22;5370;50.132;8.626;2023-04-24T08:32:22;31.40;25.30
10644;DHT22;5370;50.132;8.626;2023-04-24T08:34:47;31.10;25.20
10644;DHT22;5370;50.132;8.626;2023-04-24T08:37:13;30.90;25.60
10644;DHT22;5370;50.132;8.626;2023-04-24T08:39:39;30.80;25.50
10644;DHT22;5370;50.132;8.626;2023-04-24T08:42:05;30.40;25.40
10644;DHT22;5370;50.132;8.626;2023-04-24T08:44:33;29.60;25.60
10644;DHT22;5370;50.132;8.626;2023-04-24T08:47:01;28.30;26.20
10644;DHT22;5370;50.132;8.626;2023-04-24T08:49:28;26.70;27.30
10644;DHT22;5370;50.132;8.626;2023-04-24T08:51:53;25.10;28.70
10644;DHT22;5370;50.132;8.626;2023-04-24T08:54:20;23.60;30.00
10644;DHT22;5370;50.132;8.626;2023-04-24T08:56:48;22.20;31.50
10644;DHT22;5370;50.132;8.626;2023-04-24T08:59:17;20.90;33.20
10644;DHT22;5370;50.132;8.626;2023-04-24T09:01:43;19.90;34.80
10644;DHT22;5370;50.132;8.626;2023-04-24T09:04:10;19.00;36.00
10644;DHT22;5370;50.132;8.626;2023-04-24T09:06:37;18.30;37.40
10644;DHT22;5370;50.132;8.626;2023-04-24T09:09:03;17.70;38.50
10644;DHT22;5370;50.132;8.626;2023-04-24T09:11:31;17.20;39.70
10644;DHT22;5370;50.132;8.626;2023-04-24T09:13:58;16.70;40.70
10644;DHT22;5370;50.132;8.626;2023-04-24T09:16:25;16.40;41.90
10644;DHT22;5370;50.132;8.626;2023-04-24T09:18:51;16.10;42.40
10644;DHT22;5370;50.132;8.626;2023-04-24T09:21:16;16.00;43.20
10644;DHT22;5370;50.132;8.626;2023-04-24T09:23:42;15.90;44.00
10644;DHT22;5370;50.132;8.626;2023-04-24T09:26:09;15.80;44.20
10644;DHT22;5370;50.132;8.626;2023-04-24T09:28:37;15.70;44.70
10644;DHT22;5370;50.132;8.626;2023-04-24T09:31:14;15.60;45.30
10644;DHT22;5370;50.132;8.626;2023-04-24T09:33:57;15.50;45.40
10644;DHT22;5370;50.132;8.626;2023-04-24T09:36:31;15.30;45.80
10644;DHT22;5370;50.132;8.626;2023-04-24T09:39:04;15.10;46.00
10644;DHT22;5370;50.132;8.626;2023-04-24T09:41:32;15.00;46.50
10644;DHT22;5370;50.132;8.626;2023-04-24T09:44:11;14.80;46.70
10644;DHT22;5370;50.132;8.626;2023-04-24T09:46:36;14.80;47.00
10644;DHT22;5370;50.132;8.626;2023-04-24T09:49:16;14.80;47.40
10644;DHT22;5370;50.132;8.626;2023-04-24T09:51:42;14.70;47.80
10644;DHT22;5370;50.132;8.626;2023-04-24T09:54:18;14.70;48.00
10644;DHT22;5370;50.132;8.626;2023-04-24T09:56:48;14.60;48.30
10644;DHT22;5370;50.132;8.626;2023-04-24T09:59:15;14.60;48.50
10644;DHT22;5370;50.132;8.626;2023-04-24T10:01:41;14.60;49.00
10644;DHT22;5370;50.132;8.626;2023-04-24T10:04:28;14.60;49.10
10644;DHT22;5370;50.132;8.626;2023-04-24T10:06:55;14.60;49.50
10644;DHT22;5370;50.132;8.626;2023-04-24T10:09:23;14.60;49.60
10644;DHT22;5370;50.132;8.626;2023-04-24T10:11:50;14.70;49.60
10644;DHT22;5370;50.132;8.626;2023-04-24T10:14:22;14.80;49.80
10644;DHT22;5370;50.132;8.626;2023-04-24T10:16:48;14.90;50.10
10644;DHT22;5370;50.132;8.626;2023-04-24T10:19:15;15.00;50.30
10644;DHT22;5370;50.132;8.626;2023-04-24T10:21:43;15.10;50.60
10644;DHT22;5370;50.132;8.626;2023-04-24T10:24:15;15.20;50.80
10644;DHT22;5370;50.132;8.626;2023-04-24T10:26:42;15.40;51.40
10644;DHT22;5370;50.132;8.626;2023-04-24T10:29:10;15.50;51.70
10644;DHT22;5370;50.132;8.626;2023-04-24T10:31:38;15.50;51.90
10644;DHT22;5370;50.132;8.626;2023-04-24T10:34:05;15.50;52.10
10644;DHT22;5370;50.132;8.626;2023-04-24T10:36:33;15.50;52.80
10644;DHT22;5370;50.132;8.626;2023-04-24T10:39:01;15.50;53.70
10644;DHT22;5370;50.132;8.626;2023-04-24T10:41:30;15.40;54.20
10644;DHT22;5370;50.132;8.626;2023-04-24T10:44:12;15.40;54.80
10644;DHT22;5370;50.132;8.626;2023-04-24T10:46:42;15.20;55.30
10644;DHT22;5370;50.132;8.626;2023-04-24T10:49:08;15.10;55.50
10644;DHT22;5370;50.132;8.626;2023-04-24T10:51:48;14.90;56.10
10644;DHT22;5370;50.132;8.626;2023-04-24T10:54:44;14.70;56.90
10644;DHT22;5370;50.132;8.626;2023-04-24T10:59:45;14.70;58.40
10644;DHT22;5370;50.132;8.626;2023-04-24T11:02:14;14.70;58.70
10644;DHT22;5370;50.132;8.626;2023-04-24T11:04:40;15.00;59.10
10644;DHT22;5370;50.132;8.626;2023-04-24T11:07:09;15.20;59.10
10644;DHT22;5370;50.132;8.626;2023-04-24T11:09:35;15.40;58.60
10644;DHT22;5370;50.132;8.626;2023-04-24T11:12:06;15.70;58.30
10644;DHT22;5370;50.132;8.626;2023-04-24T11:17:32;16.20;57.20
10644;DHT22;5370;50.132;8.626;2023-04-24T11:20:10;16.30;56.60
10644;DHT22;5370;50.132;8.626;2023-04-24T11:22:38;16.50;56.50
10644;DHT22;5370;50.132;8.626;2023-04-24T11:25:08;16.60;55.90
10644;DHT22;5370;50.132;8.626;2023-04-24T11:27:41;16.80;55.30
10644;DHT22;5370;50.132;8.626;2023-04-24T11:30:07;17.00;54.70
10644;DHT22;5370;50.132;8.626;2023-04-24T11:35:01;17.20;53.30
10644;DHT22;5370;50.132;8.626;2023-04-24T11:37:29;17.30;53.10
10644;DHT22;5370;50.132;8.626;2023-04-24T11:39:58;17.30;52.90
10644;DHT22;5370;50.132;8.626;2023-04-24T11:42:24;17.50;52.90
10644;DHT22;5370;50.132;8.626;2023-04-24T11:44:53;17.50;52.70
10644;DHT22;5370;50.132;8.626;2023-04-24T11:47:19;17.60;52.80
10644;DHT22;5370;50.132;8.626;2023-04-24T11:49:45;17.50;52.30
10644;DHT22;5370;50.132;8.626;2023-04-24T11:52:15;17.40;52.10
10644;DHT22;5370;50.132;8.626;2023-04-24T11:54:48;17.30;51.70
10644;DHT22;5370;50.132;8.626;2023-04-24T11:57:14;17.10;52.00
10644;DHT22;5370;50.132;8.626;2023-04-24T11:59:40;17.10;52.40
10644;DHT22;5370;50.132;8.626;2023-04-24T12:02:05;17.00;52.40
10644;DHT22;5370;50.132;8.626;2023-04-24T12:04:41;17.00;52.50
10644;DHT22;5370;50.132;8.626;2023-04-24T12:07:07;16.90;52.40
10644;DHT22;5370;50.132;8.626;2023-04-24T12:12:08;16.50;53.20
10644;DHT22;5370;50.132;8.626;2023-04-24T12:14:54;16.30;53.70
10644;DHT22;5370;50.132;8.626;2023-04-24T12:17:31;16.20;54.40
10644;DHT22;5370;50.132;8.626;2023-04-24T12:20:04;16.00;54.60
10644;DHT22;5370;50.132;8.626;2023-04-24T12:23:01;15.70;54.90
10644;DHT22;5370;50.132;8.626;2023-04-24T12:25:29;15.40;55.80
10644;DHT22;5370;50.132;8.626;2023-04-24T12:30:31;15.00;57.60
10644;DHT22;5370;50.132;8.626;2023-04-24T12:32:58;14.90;57.80
10644;DHT22;5370;50.132;8.626;2023-04-24T12:35:29;15.00;57.80
10644;DHT22;5370;50.132;8.626;2023-04-24T12:38:08;15.10;57.80
10644;DHT22;5370;50.132;8.626;2023-04-24T12:40:34;15.20;57.50
10644;DHT22;5370;50.132;8.626;2023-04-24T12:42:59;15.20;57.20
10644;DHT22;5370;50.132;8.626;2023-04-24T12:45:25;15.20;57.60
10644;DHT22;5370;50.132;8.626;2023-04-24T12:47:53;15.30;57.80
10644;DHT22;5370;50.132;8.626;2023-04-24T12:50:18;15.50;58.10
10644;DHT22;5370;50.132;8.626;2023-04-24T12:52:44;15.80;58.20
10644;DHT22;5370;50.132;8.626;2023-04-24T12:55:10;16.00;57.70
10644;DHT22;5370;50.132;8.626;2023-04-24T12:57:38;16.10;57.20
10644;DHT22;5370;50.132;8.626;2023-04-24T13:00:05;16.30;56.70
10644;DHT22;5370;50.132;8.626;2023-04-24T13:02:31;16.50;56.40
10644;DHT22;5370;50.132;8.626;2023-04-24T13:04:58;16.70;56.30
10644;DHT22;5370;50.132;8.626;2023-04-24T13:07:24;17.00;56.50
10644;DHT22;5370;50.132;8.626;2023-04-24T13:09:50;17.10;55.70
10644;DHT22;5370;50.132;8.626;2023-04-24T13:12:16;17.20;55.20
10644;DHT22;5370;50.132;8.626;2023-04-24T13:14:42;17.30;55.10
10644;DHT22;5370;50.132;8.626;2023-04-24T13:17:08;17.50;55.20
10644;DHT22;5370;50.132;8.626;2023-04-24T13:19:39;17.70;54.60
10644;DHT22;5370;50.132;8.626;2023-04-24T13:22:05;17.80;54.00
10644;DHT22;5370;50.132;8.626;2023-04-24T13:24:31;18.00;53.40
10644;DHT22;5370;50.132;8.626;2023-04-24T13:26:57;18.10;52.70
10644;DHT22;5370;50.132;8.626;2023-04-24T13:29:23;18.10;52.30
10644;DHT22;5370;50.132;8.626;2023-04-24T13:31:52;18.20;51.70
10644;DHT22;5370;50.132;8.626;2023-04-24T13:34:24;18.20;51.10
10644;DHT22;5370;50.132;8.626;2023-04-24T13:36:56;18.10;50.20
10644;DHT22;5370;50.132;8.626;2023-04-24T13:39:23;17.80;49.60
10644;DHT22;5370;50.132;8.626;2023-04-24T13:41:49;17.50;49.60
10644;DHT22;5370;50.132;8.626;2023-04-24T13:44:16;17.10;49.50
10644;DHT22;5370;50.132;8.626;2023-04-24T13:46:44;16.90;49.90
10644;DHT22;5370;50.132;8.626;2023-04-24T13:49:11;16.70;49.90
10644;DHT22;5370;50.132;8.626;2023-04-24T13:51:36;16.60;49.90
10644;DHT22;5370;50.132;8.626;2023-04-24T13:54:02;16.60;49.70
10644;DHT22;5370;50.132;8.626;2023-04-24T13:56:27;16.50;49.50
10644;DHT22;5370;50.132;8.626;2023-04-24T13:58:53;16.50;49.40
10644;DHT22;5370;50.132;8.626;2023-04-24T14:01:22;16.50;49.60
10644;DHT22;5370;50.132;8.626;2023-04-24T14:03:51;16.60;49.70
10644;DHT22;5370;50.132;8.626;2023-04-24T14:06:18;16.70;49.90
10644;DHT22;5370;50.132;8.626;2023-04-24T14:08:43;17.00;49.90
10644;DHT22;5370;50.132;8.626;2023-04-24T14:11:09;17.50;49.60
10644;DHT22;5370;50.132;8.626;2023-04-24T14:13:36;17.80;49.00
10644;DHT22;5370;50.132;8.626;2023-04-24T14:16:02;18.00;48.20
10644;DHT22;5370;50.132;8.626;2023-04-24T14:18:27;18.10;47.40
10644;DHT22;5370;50.132;8.626;2023-04-24T14:20:53;18.10;46.80
10644;DHT22;5370;50.132;8.626;2023-04-24T14:23:18;18.10;47.10
10644;DHT22;5370;50.132;8.626;2023-04-24T14:25:44;18.10;47.10
10644;DHT22;5370;50.132;8.626;2023-04-24T14:28:09;18.20;47.00
10644;DHT22;5370;50.132;8.626;2023-04-24T14:30:35;18.30;46.80
10644;DHT22;5370;50.132;8.626;2023-04-24T14:33:03;18.30;46.60
10644;DHT22;5370;50.132;8.626;2023-04-24T14:35:29;18.30;46.50
10644;DHT22;5370;50.132;8.626;2023-04-24T14:37:56;18.20;46.50
10644;DHT22;5370;50.132;8.626;2023-04-24T14:40:22;18.10;46.50
10644;DHT22;5370;50.132;8.626;2023-04-24T14:42:48;18.00;46.40
10644;DHT22;5370;50.132;8.626;2023-04-24T14:45:13;17.80;46.50
10644;DHT22;5370;50.132;8.626;2023-04-24T14:47:40;17.60;47.00
10644;DHT22;5370;50.132;8.626;2023-04-24T14:50:06;17.40;47.70
10644;DHT22;5370;50.132;8.626;2023-04-24T14:52:33;17.10;48.00
10644;DHT22;5370;50.132;8.626;2023-04-24T14:54:58;17.00;48.50
10644;DHT22;5370;50.132;8.626;2023-04-24T14:57:24;16.90;48.60
10644;DHT22;5370;50.132;8.626;2023-04-24T14:59:50;16.80;48.70
10644;DHT22;5370;50.132;8.626;2023-04-24T15:02:16;16.80;49.00
10644;DHT22;5370;50.132;8.626;2023-04-24T15:04:41;16.90;48.70
10644;DHT22;5370;50.132;8.626;2023-04-24T15:07:07;16.90;48.50
10644;DHT22;5370;50.132;8.626;2023-04-24T15:09:32;17.00;48.70
10644;DHT22;5370;50.132;8.626;2023-04-24T15:11:58;17.00;48.70
10644;DHT22;5370;50.132;8.626;2023-04-24T15:14:24;17.10;48.40
10644;DHT22;5370;50.132;8.626;2023-04-24T15:16:49;17.00;47.90
10644;DHT22;5370;50.132;8.626;2023-04-24T15:19:15;17.00;47.60
10644;DHT22;5370;50.132;8.626;2023-04-24T15:21:40;16.90;47.50
10644;DHT22;5370;50.132;8.626;2023-04-24T15:24:08;16.70;47.20
10644;DHT22;5370;50.132;8.626;2023-04-24T15:26:33;16.60;47.00
10644;DHT22;5370;50.132;8.626;2023-04-24T15:28:59;16.40;47.10
10644;DHT22;5370;50.132;8.626;2023-04-24T15:31:24;16.30;47.20
10644;DHT22;5370;50.132;8.626;2023-04-24T15:33:50;16.20;47.40
10644;DHT22;5370;50.132;8.626;2023-04-24T15:36:17;16.20;47.80
10644;DHT22;5370;50.132;8.626;2023-04-24T15:38:43;16.20;47.70
10644;DHT22;5370;50.132;8.626;2023-04-24T15:41:10;16.10;46.90
10644;DHT22;5370;50.132;8.626;2023-04-24T15:43:36;16.10;46.40
10644;DHT22;5370;50.132;8.626;2023-04-24T15:46:02;16.00;45.80
10644;DHT22;5370;50.132;8.626;2023-04-24T15:48:29;16.10;46.10
10644;DHT22;5370;50.132;8.626;2023-04-24T15:50:54;16.10;46.10
10644;DHT22;5370;50.132;8.626;2023-04-24T15:53:20;16.10;46.00
10644;DHT22;5370;50.132;8.626;2023-04-24T15:55:49;16.20;46.00